createdAt,value
2022-10-06T00:18:24.026Z,17.13
2022-10-06T00:47:02.256Z,17.14
2022-10-06T01:15:53.467Z,17.13
2022-10-06T01:44:10.550Z,17.14
2022-10-06T02:12:58.753Z,17.13
2022-10-06T02:41:46.715Z,17.15
2022-10-06T03:10:44.398Z,17.13
2022-10-06T03:39:35.200Z,17.14
2022-10-06T04:08:04.444Z,17.16
2022-10-06T04:36:34.472Z,17.16
2022-10-06T05:05:26.317Z,17.16
2022-10-06T05:34:05.484Z,17.16
2022-10-06T06:02:49.116Z,17.17
2022-10-06T06:31:28.021Z,17.17
2022-10-06T07:00:07.740Z,17.18
2022-10-06T07:28:38.399Z,17.18
2022-10-06T07:57:31.105Z,17.19
2022-10-06T08:25:56.526Z,17.21
2022-10-06T09:24:18.079Z,17.2
2022-10-06T10:22:23.568Z,17.2
2022-10-06T10:50:53.807Z,17.2
2022-10-06T11:19:30.793Z,17.21
2022-10-06T11:48:15.033Z,17.21
2022-10-06T12:17:15.522Z,17.22
2022-10-06T12:45:32.853Z,17.22
2022-10-06T13:14:19.634Z,17.23
2022-10-06T13:42:52.959Z,17.23
2022-10-06T14:11:47.488Z,17.24
2022-10-06T14:40:23.075Z,17.28
2022-10-06T15:09:17.128Z,17.3
2022-10-06T15:37:52.677Z,17.32
2022-10-06T16:06:35.837Z,17.33
2022-10-06T16:34:49.747Z,17.33
2022-10-06T17:03:26.944Z,17.34
2022-10-06T17:31:55.172Z,17.36
2022-10-06T18:00:26.065Z,17.37
2022-10-06T18:29:01.125Z,17.38
2022-10-06T18:57:46.943Z,17.4
2022-10-06T19:26:31.091Z,17.39
2022-10-06T19:55:14.541Z,17.41
2022-10-06T20:23:52.367Z,17.41
2022-10-06T21:38:40.261Z,17.64
2022-10-06T22:05:50.070Z,17.53
2022-10-06T22:34:08.750Z,17.45
2022-10-06T23:03:06.171Z,17.44
2022-10-06T23:31:57.385Z,17.46
